메인 페이지
METAR-TAF:

METAR-TAF

공항 :

핼리팩스, 노바스코샤, 캐나다

핼리팩스 스탠필드 국제공항

위도: 44-53N, 경도: 063-30W, 고도: 145m

현재 날씨관측

예보는 54분 전, 08:00시(UTC)에 발표되었습니다.
서북서10kt, 순간 최대 풍속 15kt
온도 1°C
습도 75%
기압 1007 hPa
시정: 24.1km
고도 3100ft 상공 구름 많음

METAR: CYHZ 210800Z 30010G15KT 15SM BKN031 01/M03 A2973 RMK SC6 SLP074

시각: 04:54 (08:54 UTC)

예보

예보는 16분 전, 08:38시(UTC)에 발표되었습니다.
예보 대상 시간: 21일 09시부터 22일 06시까지 (UTC)
북서12kt, 순간 최대 풍속 22kt
시정: 10km
고도 3000ft 상공 구름 보통
일시적
21일 09시부터 21일 15시까지 (UTC)
고도 3000ft 상공 구름 많음
21일 1500시부터 (UTC)
서북서12kt, 순간 최대 풍속 22kt
시정: 10km
고도 3000ft 상공 구름 조금
전환 중
22일 03시부터 22일 05시까지 (UTC)
서북서6kt

TAF: CYHZ 210838Z 2109/2206 31012G22KT P6SM SCT030 TEMPO 2109/2115 BKN030 FM211500 30012G22KT P6SM FEW030 BECMG 2203/2205 30006KT RMK NXT FCST BY 211200Z

4,000개 이상의 공항 관측 자료 및 예보 (METAR 및 TAF 보고).

지도상에서 검색 가능한 기상관측소가 노란 점과 빨간 점으로 표시되어 있습니다.

기상관측소 명을 보려면 표시 위로 마우스를 이동하세요.

날씨 관측과 예보를 보려면 클릭하세요.

지도 변경 : 확대하려면 엑스 표시가 있는 녹색 버튼, 축소하려면 빼기 표시가 있는 녹색 버튼, 다음 페이지의 지도를 보려면 녹색 화살표를 클릭하세요.


METAR-TAF: